Time;durP1;ratioP1;P1;durP2;ratioP2;P2;SDS_P1;SDS_P2;PMS_P1;PMS_P2;Temp;Humidity;BMP_temperature;BMP_pressure;BME280_temperature;BME280_humidity;BME280_pressure;Samples;Min_cycle;Max_cycle;Signal;HPM_P1;HPM_P2
2023/12/08 00:01:06;;;;;;;29.70;10.40;;;;;;;;;;5018961;28;20045;-84
2023/12/08 00:03:55;;;;;;;23.42;7.75;;;;;;;;;;5030403;28;20038;-84
2023/12/08 00:06:50;;;;;;;29.95;11.20;;;;;;;;;;5013722;28;20042;-84
2023/12/08 00:09:48;;;;;;;24.30;9.18;;;;;;;;;;5031583;28;20052;-84
2023/12/08 00:12:17;;;;;;;26.90;11.77;;;;;;;;;;5028333;28;20155;-84
2023/12/08 00:14:50;;;;;;;12.70;7.07;;;;;;;;;;5012379;28;20045;-84
2023/12/08 00:31:14;;;;;;;;;;;;;;;;;;;;;
2023/12/08 00:45:46;;;;;;;7.28;2.50;;;;;;;;;;4996597;28;20045;-84
2023/12/08 00:48:22;;;;;;;6.07;3.47;;;;;;;;;;4998769;28;20049;-84
2023/12/08 00:50:55;;;;;;;10.23;2.42;;;;;;;;;;5046732;28;20034;-84
2023/12/08 00:53:35;;;;;;;6.20;2.88;;;;;;;;;;5036083;28;20128;-84
2023/12/08 01:02:48;;;;;;;8.20;2.95;;;;;;;;;;4977619;28;20435;-84
2023/12/08 01:06:01;;;;;;;7.28;2.30;;;;;;;;;;5053758;28;20476;-84
2023/12/08 01:08:30;;;;;;;;;;;;;;;;;;5038750;28;20041;-84
2023/12/08 01:11:32;;;;;;;6.85;1.88;;;;;;;;;;5054138;28;19920;-85
2023/12/08 01:17:23;;;;;;;3.95;1.75;;;;;;;;;;5036585;28;20048;-85
2023/12/08 01:20:36;;;;;;;3.30;1.55;;;;;;;;;;5042133;28;20486;-86
2023/12/08 01:26:27;;;;;;;;;;;;;;;;;;;;;
2023/12/08 01:35:08;;;;;;;;;;;;;;;;;;;;;
2023/12/08 01:43:41;;;;;;;;;;;;;;;;;;;;;
2023/12/08 01:55:13;;;;;;;3.53;1.67;;;;;;;;;;4975397;28;20086;-85
2023/12/08 01:57:50;;;;;;;3.88;1.48;;;;;;;;;;5045423;28;20041;-85
2023/12/08 02:00:48;;;;;;;3.45;1.67;;;;;;;;;;5038150;28;20040;-86
2023/12/08 02:03:35;;;;;;;3.40;1.30;;;;;;;;;;4994473;28;20033;-86
2023/12/08 02:06:04;;;;;;;4.10;1.48;;;;;;;;;;5023958;28;20103;-85
2023/12/08 02:08:45;;;;;;;2.65;1.20;;;;;;;;;;5038042;28;20123;-85
2023/12/08 02:11:11;;;;;;;;;;;;;;;;;;5055789;28;20044;-85
2023/12/08 02:13:47;;;;;;;2.20;1.17;;;;;;;;;;5039426;28;19913;-86
2023/12/08 02:24:46;;;;;;;3.70;1.48;;;;;;;;;;5166747;23;20522;-85
2023/12/08 02:27:12;;;;;;;2.80;1.13;;;;;;;;;;5057010;28;20394;-85
2023/12/08 02:29:38;;;;;;;2.15;1.77;;;;;;;;;;5074878;28;20433;-85
2023/12/08 02:32:10;;;;;;;3.63;0.77;;;;;;;;;;5055892;28;20090;-85
2023/12/08 02:34:36;;;;;;;1.63;0.98;;;;;;;;;;5056515;28;20123;-85
2023/12/08 02:37:06;;;;;;;1.73;0.70;;;;;;;;;;5054971;28;20029;-85
2023/12/08 02:39:35;;;;;;;2.95;0.60;;;;;;;;;;5051443;28;20044;-85
2023/12/08 02:42:05;;;;;;;2.40;1.13;;;;;;;;;;5056869;28;20511;-85
2023/12/08 02:44:33;;;;;;;5.38;0.93;;;;;;;;;;5049717;28;20074;-85
2023/12/08 02:47:00;;;;;;;1.35;0.57;;;;;;;;;;5054773;28;20087;-85
2023/12/08 02:49:26;;;;;;;0.95;0.75;;;;;;;;;;5068365;28;20075;-85
2023/12/08 02:51:55;;;;;;;1.05;0.45;;;;;;;;;;5051550;28;20029;-85
2023/12/08 02:54:21;;;;;;;2.13;1.52;;;;;;;;;;5048320;28;20049;-85
2023/12/08 02:56:47;;;;;;;2.85;1.17;;;;;;;;;;5069718;28;20042;-85
2023/12/08 02:59:13;;;;;;;4.03;0.85;;;;;;;;;;5073570;28;20151;-85
2023/12/08 03:01:39;;;;;;;4.80;2.05;;;;;;;;;;5051894;28;20470;-85
2023/12/08 03:04:05;;;;;;;3.53;1.70;;;;;;;;;;5055066;28;20048;-85
2023/12/08 03:06:31;;;;;;;2.63;0.90;;;;;;;;;;5061597;28;20033;-84
2023/12/08 03:08:57;;;;;;;2.88;1.20;;;;;;;;;;5062438;28;20033;-84
2023/12/08 03:11:23;;;;;;;5.10;1.58;;;;;;;;;;5051247;28;20398;-85
2023/12/08 03:13:49;;;;;;;2.75;1.45;;;;;;;;;;5048507;28;20071;-85
2023/12/08 03:16:16;;;;;;;2.70;1.08;;;;;;;;;;5043025;28;20052;-84
2023/12/08 03:18:42;;;;;;;3.13;1.23;;;;;;;;;;5059047;28;20044;-84
2023/12/08 03:21:08;;;;;;;3.88;0.55;;;;;;;;;;5056884;28;20084;-84
2023/12/08 03:23:34;;;;;;;4.07;2.20;;;;;;;;;;5061815;28;20056;-84
2023/12/08 03:26:00;;;;;;;2.58;0.77;;;;;;;;;;5049424;28;20088;-84
2023/12/08 03:28:26;;;;;;;2.20;1.23;;;;;;;;;;5040610;28;20040;-84
2023/12/08 03:30:52;;;;;;;2.67;1.50;;;;;;;;;;5049040;28;20382;-84
2023/12/08 03:33:18;;;;;;;3.20;1.20;;;;;;;;;;5069754;28;20107;-83
2023/12/08 03:35:44;;;;;;;2.35;1.55;;;;;;;;;;5055976;28;20072;-84
2023/12/08 03:38:10;;;;;;;3.33;1.45;;;;;;;;;;5044873;28;20041;-84
2023/12/08 03:40:36;;;;;;;4.57;1.25;;;;;;;;;;5053254;28;20486;-84
2023/12/08 03:43:02;;;;;;;6.18;1.63;;;;;;;;;;5052610;28;20394;-84
2023/12/08 03:45:28;;;;;;;6.80;1.48;;;;;;;;;;5054075;28;20645;-84
2023/12/08 03:47:57;;;;;;;2.33;1.27;;;;;;;;;;5040100;28;20036;-83
2023/12/08 03:50:25;;;;;;;2.05;1.20;;;;;;;;;;5054251;28;20119;-84
2023/12/08 03:52:59;;;;;;;1.85;0.95;;;;;;;;;;5041132;28;20039;-84
2023/12/08 03:55:33;;;;;;;3.90;2.50;;;;;;;;;;5055815;28;20044;-83
2023/12/08 03:58:02;;;;;;;1.92;0.90;;;;;;;;;;5055173;28;20025;-84
2023/12/08 04:00:30;;;;;;;2.85;2.35;;;;;;;;;;5055509;28;20032;-83
2023/12/08 04:03:02;;;;;;;4.13;1.23;;;;;;;;;;5055466;28;20037;-83
2023/12/08 04:05:28;;;;;;;2.33;1.20;;;;;;;;;;5055641;28;20075;-83
2023/12/08 04:07:57;;;;;;;2.80;0.77;;;;;;;;;;5053484;28;20044;-83
2023/12/08 04:10:25;;;;;;;3.78;1.40;;;;;;;;;;5053218;28;20373;-83
2023/12/08 04:12:54;;;;;;;1.63;0.80;;;;;;;;;;5054586;28;20033;-84
2023/12/08 04:15:26;;;;;;;5.25;2.33;;;;;;;;;;5035438;28;20764;-83
2023/12/08 04:17:59;;;;;;;4.43;1.70;;;;;;;;;;5034744;28;20102;-84
2023/12/08 04:20:35;;;;;;;3.35;1.05;;;;;;;;;;5050916;28;20072;-83
2023/12/08 04:23:06;;;;;;;1.60;1.10;;;;;;;;;;5042930;28;20044;-83
2023/12/08 04:25:34;;;;;;;7.40;1.85;;;;;;;;;;5031365;28;20144;-83
2023/12/08 04:28:03;;;;;;;2.95;1.45;;;;;;;;;;5032709;28;20045;-83
2023/12/08 04:30:31;;;;;;;4.18;1.42;;;;;;;;;;5032401;28;20035;-83
2023/12/08 04:33:00;;;;;;;2.85;0.90;;;;;;;;;;5042474;28;20052;-83
2023/12/08 04:35:26;;;;;;;3.75;2.22;;;;;;;;;;5040380;28;20034;-82
2023/12/08 04:37:55;;;;;;;5.07;1.60;;;;;;;;;;5037244;28;20430;-83
2023/12/08 04:40:21;;;;;;;2.58;1.05;;;;;;;;;;5030789;28;20037;-83
2023/12/08 04:42:47;;;;;;;6.50;2.95;;;;;;;;;;5017558;28;20045;-83
2023/12/08 04:45:14;;;;;;;1.60;0.63;;;;;;;;;;5020345;28;20033;-83
2023/12/08 04:47:40;;;;;;;3.78;1.55;;;;;;;;;;5034867;28;20033;-83
2023/12/08 04:50:06;;;;;;;7.93;1.70;;;;;;;;;;5037185;28;20071;-83
2023/12/08 04:52:32;;;;;;;4.10;1.90;;;;;;;;;;5034541;28;20036;-83
2023/12/08 04:55:00;;;;;;;2.03;0.98;;;;;;;;;;5033077;28;20048;-82
2023/12/08 04:57:26;;;;;;;2.97;1.23;;;;;;;;;;5036702;28;20071;-83
2023/12/08 04:59:52;;;;;;;2.45;1.20;;;;;;;;;;5036946;28;20046;-82
2023/12/08 05:02:18;;;;;;;5.07;1.70;;;;;;;;;;5039778;28;20041;-83
2023/12/08 05:04:44;;;;;;;2.55;1.52;;;;;;;;;;5030852;28;20520;-83
2023/12/08 05:07:10;;;;;;;4.45;1.15;;;;;;;;;;5036236;28;20029;-83
2023/12/08 05:09:36;;;;;;;4.40;1.48;;;;;;;;;;5036474;28;20049;-83
2023/12/08 05:12:02;;;;;;;3.20;1.88;;;;;;;;;;5033444;28;20041;-83
2023/12/08 05:14:29;;;;;;;2.85;1.35;;;;;;;;;;5028097;28;20053;-83
2023/12/08 05:16:55;;;;;;;2.40;1.73;;;;;;;;;;5051910;28;20040;-83
2023/12/08 05:19:21;;;;;;;2.67;1.40;;;;;;;;;;5040694;28;20060;-83
2023/12/08 05:21:47;;;;;;;3.70;1.70;;;;;;;;;;5023143;28;20064;-83
2023/12/08 05:24:13;;;;;;;3.78;2.60;;;;;;;;;;5036265;28;20052;-83
2023/12/08 05:26:39;;;;;;;2.92;1.42;;;;;;;;;;5037372;28;20485;-83
2023/12/08 05:29:05;;;;;;;2.55;0.95;;;;;;;;;;5032768;28;20040;-83
2023/12/08 05:31:31;;;;;;;5.45;1.95;;;;;;;;;;5041856;28;20047;-83
2023/12/08 05:33:57;;;;;;;4.13;1.67;;;;;;;;;;5033208;28;20049;-83
2023/12/08 05:36:25;;;;;;;3.95;1.83;;;;;;;;;;5042111;28;20713;-83
2023/12/08 05:38:53;;;;;;;3.10;1.63;;;;;;;;;;5033977;28;20049;-83
2023/12/08 05:41:19;;;;;;;3.60;1.75;;;;;;;;;;5021878;28;20489;-83
2023/12/08 05:43:46;;;;;;;3.50;1.63;;;;;;;;;;5050779;28;20037;-83
2023/12/08 05:46:12;;;;;;;1.52;0.82;;;;;;;;;;5017163;28;20036;-83
2023/12/08 05:48:38;;;;;;;5.93;2.65;;;;;;;;;;5016537;28;20083;-83
2023/12/08 05:51:04;;;;;;;5.03;1.08;;;;;;;;;;5042413;28;20087;-83
2023/12/08 05:53:30;;;;;;;4.07;1.88;;;;;;;;;;5030820;28;20080;-83
2023/12/08 05:55:56;;;;;;;4.97;1.55;;;;;;;;;;5040361;28;20702;-83
2023/12/08 05:58:24;;;;;;;3.58;1.05;;;;;;;;;;5029492;28;20037;-83
2023/12/08 06:00:50;;;;;;;3.33;0.98;;;;;;;;;;5032283;28;20386;-83
2023/12/08 06:03:16;;;;;;;4.35;0.77;;;;;;;;;;5043251;28;20049;-83
2023/12/08 06:05:42;;;;;;;1.25;0.50;;;;;;;;;;5036032;28;20064;-83
2023/12/08 06:08:08;;;;;;;6.82;1.33;;;;;;;;;;5039848;28;20073;-83
2023/12/08 06:10:34;;;;;;;1.10;0.82;;;;;;;;;;5031085;28;20601;-83
2023/12/08 06:13:00;;;;;;;3.40;0.80;;;;;;;;;;5045237;28;20037;-82
2023/12/08 06:15:27;;;;;;;4.35;1.15;;;;;;;;;;5026850;28;20069;-84
2023/12/08 06:17:53;;;;;;;2.28;1.35;;;;;;;;;;5030520;28;20030;-81
2023/12/08 06:20:19;;;;;;;4.05;1.55;;;;;;;;;;5030249;28;20041;-81
2023/12/08 06:22:45;;;;;;;3.40;1.98;;;;;;;;;;5035895;28;20037;-81
2023/12/08 06:25:11;;;;;;;2.00;1.05;;;;;;;;;;5058901;28;20536;-81
2023/12/08 06:27:37;;;;;;;3.50;0.70;;;;;;;;;;5052340;28;20036;-81
2023/12/08 06:30:03;;;;;;;4.20;1.42;;;;;;;;;;5059592;28;20036;-82
2023/12/08 06:32:30;;;;;;;4.32;0.55;;;;;;;;;;5057844;28;20072;-83
2023/12/08 06:34:56;;;;;;;1.35;0.88;;;;;;;;;;5068873;28;20066;-82
2023/12/08 06:37:22;;;;;;;2.88;0.77;;;;;;;;;;5068150;28;20029;-82
2023/12/08 06:39:48;;;;;;;1.67;1.15;;;;;;;;;;5050972;28;20044;-81
2023/12/08 06:42:14;;;;;;;6.25;2.25;;;;;;;;;;5061212;28;20903;-81
2023/12/08 06:44:40;;;;;;;4.22;0.80;;;;;;;;;;5072638;28;20020;-82
2023/12/08 06:47:06;;;;;;;5.70;0.60;;;;;;;;;;5069729;28;20067;-83
2023/12/08 06:49:32;;;;;;;1.17;0.20;;;;;;;;;;5072863;28;20055;-82
2023/12/08 06:51:58;;;;;;;1.20;0.40;;;;;;;;;;5055263;28;20465;-83
2023/12/08 06:54:24;;;;;;;2.10;1.15;;;;;;;;;;5056329;28;20067;-83
2023/12/08 06:56:50;;;;;;;1.77;0.90;;;;;;;;;;5073570;28;20051;-82
2023/12/08 06:59:16;;;;;;;2.10;1.20;;;;;;;;;;5068879;28;20466;-83
2023/12/08 07:01:42;;;;;;;4.07;0.68;;;;;;;;;;5070077;28;20370;-82
2023/12/08 07:04:08;;;;;;;2.22;0.65;;;;;;;;;;5035193;28;20561;-83
2023/12/08 07:06:34;;;;;;;2.50;1.70;;;;;;;;;;5066088;28;20079;-83
2023/12/08 07:09:00;;;;;;;2.75;1.27;;;;;;;;;;5062981;28;20040;-83
2023/12/08 07:11:26;;;;;;;5.63;1.55;;;;;;;;;;5073078;28;20369;-82
2023/12/08 07:13:53;;;;;;;1.98;1.33;;;;;;;;;;5062012;28;20109;-82
2023/12/08 07:16:19;;;;;;;1.58;1.10;;;;;;;;;;5071999;28;20040;-82
2023/12/08 07:18:45;;;;;;;1.08;0.50;;;;;;;;;;5064946;28;20058;-82
2023/12/08 07:21:12;;;;;;;4.70;0.90;;;;;;;;;;5035351;28;20052;-83
2023/12/08 07:23:38;;;;;;;1.15;0.68;;;;;;;;;;5064770;28;20129;-82
2023/12/08 07:26:07;;;;;;;2.22;0.85;;;;;;;;;;5052945;28;20103;-82
2023/12/08 07:28:33;;;;;;;0.63;0.30;;;;;;;;;;5065870;28;20028;-82
2023/12/08 07:30:59;;;;;;;1.10;0.70;;;;;;;;;;5051368;28;20483;-82
2023/12/08 07:33:25;;;;;;;0.77;0.68;;;;;;;;;;5064721;28;20128;-82
2023/12/08 07:35:51;;;;;;;3.20;1.45;;;;;;;;;;5070276;28;20051;-82
2023/12/08 07:38:18;;;;;;;2.70;0.98;;;;;;;;;;5061892;28;20037;-82
2023/12/08 07:40:45;;;;;;;1.80;1.02;;;;;;;;;;5050026;28;20120;-83
2023/12/08 07:43:11;;;;;;;2.92;1.48;;;;;;;;;;5062536;28;20020;-82
2023/12/08 07:45:37;;;;;;;2.13;0.80;;;;;;;;;;5053796;28;20045;-82
2023/12/08 07:48:03;;;;;;;0.75;0.45;;;;;;;;;;5065812;28;20032;-82
2023/12/08 07:50:29;;;;;;;1.13;0.57;;;;;;;;;;5051198;28;20058;-81
2023/12/08 07:52:55;;;;;;;1.33;0.80;;;;;;;;;;5059896;28;20912;-82
2023/12/08 07:55:21;;;;;;;1.33;0.90;;;;;;;;;;5061898;28;20045;-82
2023/12/08 07:57:47;;;;;;;0.73;0.50;;;;;;;;;;5064492;28;20029;-82
2023/12/08 08:00:13;;;;;;;2.92;1.08;;;;;;;;;;5067127;28;20752;-82
2023/12/08 08:02:39;;;;;;;2.40;1.20;;;;;;;;;;5064245;28;20414;-82
2023/12/08 08:05:06;;;;;;;1.73;1.10;;;;;;;;;;5070323;28;20033;-82
2023/12/08 08:07:32;;;;;;;1.83;0.85;;;;;;;;;;5065714;28;20038;-82
2023/12/08 08:09:59;;;;;;;0.43;0.28;;;;;;;;;;5065507;28;20064;-82
2023/12/08 08:12:25;;;;;;;10.63;0.88;;;;;;;;;;5052314;28;20036;-82
2023/12/08 08:14:51;;;;;;;1.15;0.43;;;;;;;;;;5052760;28;20441;-82
2023/12/08 08:17:17;;;;;;;1.23;0.68;;;;;;;;;;5068789;28;20079;-82
2023/12/08 08:19:43;;;;;;;1.02;0.68;;;;;;;;;;5063179;28;20178;-82
2023/12/08 08:22:09;;;;;;;2.47;0.75;;;;;;;;;;5045394;28;20075;-82
2023/12/08 08:24:35;;;;;;;1.70;1.00;;;;;;;;;;5065234;28;20052;-82
2023/12/08 08:27:02;;;;;;;3.83;1.27;;;;;;;;;;5050814;28;20041;-82
2023/12/08 08:29:28;;;;;;;2.00;1.08;;;;;;;;;;5051180;28;20041;-82
2023/12/08 08:31:54;;;;;;;1.75;0.68;;;;;;;;;;5058347;28;20049;-82
2023/12/08 08:34:20;;;;;;;0.38;0.25;;;;;;;;;;5052994;28;20375;-82
2023/12/08 08:36:46;;;;;;;0.93;0.40;;;;;;;;;;5069083;28;20036;-82
2023/12/08 08:39:12;;;;;;;0.75;0.35;;;;;;;;;;5065108;28;20040;-82
2023/12/08 08:41:38;;;;;;;0.85;0.57;;;;;;;;;;5050786;28;20428;-82
2023/12/08 08:44:04;;;;;;;0.98;0.73;;;;;;;;;;5067955;28;20060;-81
2023/12/08 08:46:30;;;;;;;0.55;0.30;;;;;;;;;;5070675;28;20048;-81
2023/12/08 08:48:56;;;;;;;;;;;;;;;;;;5035189;28;20051;-81
2023/12/08 08:51:23;;;;;;;2.05;0.73;;;;;;;;;;5050143;28;19913;-82
2023/12/08 08:53:50;;;;;;;0.90;0.43;;;;;;;;;;5057654;28;20398;-82
2023/12/08 08:56:16;;;;;;;2.22;1.27;;;;;;;;;;5050597;28;20367;-83
2023/12/08 08:58:42;;;;;;;1.90;0.80;;;;;;;;;;5051283;28;20044;-83
2023/12/08 09:01:08;;;;;;;2.53;1.10;;;;;;;;;;5052339;28;20033;-83
2023/12/08 09:03:34;;;;;;;3.08;1.23;;;;;;;;;;5053077;28;20040;-82
2023/12/08 09:06:00;;;;;;;3.70;1.50;;;;;;;;;;5066978;28;20029;-83
2023/12/08 09:08:26;;;;;;;2.80;1.83;;;;;;;;;;5056147;28;20778;-83
2023/12/08 09:10:52;;;;;;;2.10;1.13;;;;;;;;;;5063373;28;20080;-83
2023/12/08 09:13:20;;;;;;;1.40;0.55;;;;;;;;;;5067777;28;20049;-82
2023/12/08 09:15:46;;;;;;;1.75;0.80;;;;;;;;;;5055068;28;20044;-83
2023/12/08 09:18:12;;;;;;;4.10;0.95;;;;;;;;;;5056386;28;20049;-83
2023/12/08 09:20:39;;;;;;;1.25;0.52;;;;;;;;;;5065760;28;20066;-82
2023/12/08 09:23:05;;;;;;;3.50;1.55;;;;;;;;;;5064660;28;20482;-82
2023/12/08 09:25:31;;;;;;;0.68;0.20;;;;;;;;;;5068089;28;20359;-82
2023/12/08 09:27:57;;;;;;;0.85;0.50;;;;;;;;;;5062622;28;20037;-82
2023/12/08 09:30:23;;;;;;;1.95;0.95;;;;;;;;;;5064858;28;20050;-82
2023/12/08 09:32:50;;;;;;;1.33;0.80;;;;;;;;;;5064193;28;20075;-82
2023/12/08 09:35:17;;;;;;;2.53;1.02;;;;;;;;;;5070984;28;20036;-82
2023/12/08 09:37:43;;;;;;;2.33;0.77;;;;;;;;;;5071241;28;20071;-82
2023/12/08 09:40:11;;;;;;;5.28;1.58;;;;;;;;;;5073883;28;20071;-82
2023/12/08 09:42:42;;;;;;;2.78;1.50;;;;;;;;;;5068727;28;20087;-83
2023/12/08 09:45:11;;;;;;;2.78;0.85;;;;;;;;;;5056080;28;20037;-83
2023/12/08 09:47:37;;;;;;;3.42;1.85;;;;;;;;;;5062532;28;20078;-83
2023/12/08 09:50:07;;;;;;;1.50;0.50;;;;;;;;;;5053376;28;20051;-83
2023/12/08 09:52:34;;;;;;;6.63;2.50;;;;;;;;;;5048735;28;20059;-82
2023/12/08 09:55:00;;;;;;;2.42;1.17;;;;;;;;;;5061994;28;20041;-82
2023/12/08 09:57:27;;;;;;;9.18;2.72;;;;;;;;;;5059397;28;20044;-82
2023/12/08 09:59:56;;;;;;;9.82;2.08;;;;;;;;;;5057154;28;20044;-82
2023/12/08 10:02:22;;;;;;;1.35;0.73;;;;;;;;;;5060447;28;20069;-82
2023/12/08 10:04:48;;;;;;;1.00;0.50;;;;;;;;;;5059805;28;20076;-82
2023/12/08 10:07:14;;;;;;;1.25;0.68;;;;;;;;;;5071719;28;20887;-82
2023/12/08 10:09:44;;;;;;;1.50;0.82;;;;;;;;;;5069334;28;20101;-82
2023/12/08 10:12:10;;;;;;;4.18;1.55;;;;;;;;;;5063016;28;20402;-82
2023/12/08 10:14:50;;;;;;;3.97;1.95;;;;;;;;;;5070951;28;20052;-82
2023/12/08 10:17:15;;;;;;;2.33;1.45;;;;;;;;;;5040564;28;20138;-82
2023/12/08 10:19:42;;;;;;;1.80;1.05;;;;;;;;;;5070377;28;20037;-82
2023/12/08 10:22:08;;;;;;;3.05;1.55;;;;;;;;;;5053154;28;20055;-82
2023/12/08 10:24:34;;;;;;;3.40;1.52;;;;;;;;;;5035418;28;20889;-82
2023/12/08 10:27:00;;;;;;;3.83;1.90;;;;;;;;;;5025033;28;20041;-82
2023/12/08 10:29:33;;;;;;;1.38;1.02;;;;;;;;;;5045758;28;20094;-82
2023/12/08 10:31:59;;;;;;;6.22;2.42;;;;;;;;;;5031702;28;20049;-82
2023/12/08 10:34:25;;;;;;;2.25;0.90;;;;;;;;;;5031651;28;20125;-82
2023/12/08 10:36:53;;;;;;;2.20;1.50;;;;;;;;;;5046793;28;20045;-82
2023/12/08 10:39:19;;;;;;;8.13;1.90;;;;;;;;;;5034102;28;20379;-82
2023/12/08 10:41:48;;;;;;;3.78;1.65;;;;;;;;;;5045964;28;20083;-83
2023/12/08 10:44:14;;;;;;;2.05;0.82;;;;;;;;;;5041242;28;20037;-82
2023/12/08 10:46:40;;;;;;;6.70;2.33;;;;;;;;;;5039445;28;20044;-82
2023/12/08 10:49:08;;;;;;;7.05;2.08;;;;;;;;;;5038580;28;20045;-82
2023/12/08 10:51:35;;;;;;;5.18;2.30;;;;;;;;;;5045039;28;20048;-82
2023/12/08 10:54:01;;;;;;;4.00;2.47;;;;;;;;;;5027265;28;20041;-82
2023/12/08 10:56:27;;;;;;;3.15;1.13;;;;;;;;;;5032423;28;20033;-82
2023/12/08 10:58:59;;;;;;;19.52;2.75;;;;;;;;;;5037246;28;20041;-82
2023/12/08 11:01:26;;;;;;;4.32;1.70;;;;;;;;;;5051881;28;20076;-82
2023/12/08 11:03:56;;;;;;;5.35;2.25;;;;;;;;;;5023407;28;20041;-82
2023/12/08 11:06:30;;;;;;;4.75;2.53;;;;;;;;;;5050934;28;20037;-82
2023/12/08 11:08:58;;;;;;;3.15;1.17;;;;;;;;;;5038633;28;20052;-82
2023/12/08 11:11:26;;;;;;;3.53;1.55;;;;;;;;;;5043895;28;20262;-82
2023/12/08 11:13:54;;;;;;;2.65;1.15;;;;;;;;;;5040862;28;20044;-82
2023/12/08 11:16:26;;;;;;;3.55;1.80;;;;;;;;;;5042730;28;20087;-82
2023/12/08 11:18:52;;;;;;;4.20;1.27;;;;;;;;;;5035275;28;20052;-82
2023/12/08 11:21:18;;;;;;;2.42;0.90;;;;;;;;;;5050176;28;20125;-82
2023/12/08 11:23:45;;;;;;;4.45;1.10;;;;;;;;;;5045914;28;20144;-82
2023/12/08 11:26:37;;;;;;;1.48;0.90;;;;;;;;;;5061328;28;20508;-82
2023/12/08 11:29:08;;;;;;;5.70;2.30;;;;;;;;;;5026757;28;20045;-82
2023/12/08 11:31:44;;;;;;;2.38;1.65;;;;;;;;;;5071590;28;20055;-82
2023/12/08 11:34:12;;;;;;;3.03;1.48;;;;;;;;;;5066461;28;20044;-82
2023/12/08 11:36:47;;;;;;;11.40;6.07;;;;;;;;;;5051124;28;20064;-82
2023/12/08 11:39:32;;;;;;;6.18;3.13;;;;;;;;;;5065976;28;20082;-82
2023/12/08 11:41:58;;;;;;;5.95;2.08;;;;;;;;;;5053732;28;20099;-82
2023/12/08 11:44:25;;;;;;;3.28;1.17;;;;;;;;;;5068269;28;20538;-82
2023/12/08 11:46:57;;;;;;;7.45;3.65;;;;;;;;;;5071362;28;20045;-82
2023/12/08 11:49:25;;;;;;;5.43;2.65;;;;;;;;;;5061842;28;20079;-82
2023/12/08 11:52:14;;;;;;;3.80;1.25;;;;;;;;;;5061896;28;20047;-82
2023/12/08 11:55:00;;;;;;;3.80;1.98;;;;;;;;;;5064104;28;20059;-82
2023/12/08 11:57:26;;;;;;;3.13;1.38;;;;;;;;;;5061381;28;20057;-82
2023/12/08 11:59:52;;;;;;;2.60;1.20;;;;;;;;;;5063582;28;20084;-81
2023/12/08 12:02:18;;;;;;;2.38;1.33;;;;;;;;;;5067259;28;20037;-82
2023/12/08 12:04:44;;;;;;;5.50;1.73;;;;;;;;;;5065135;28;20524;-82
2023/12/08 12:07:13;;;;;;;1.90;0.80;;;;;;;;;;5066378;28;20045;-81
2023/12/08 12:09:41;;;;;;;5.15;1.90;;;;;;;;;;5050631;28;20052;-82
2023/12/08 12:12:13;;;;;;;2.40;1.05;;;;;;;;;;5057692;28;20040;-81
2023/12/08 12:14:43;;;;;;;4.97;2.17;;;;;;;;;;5052530;28;20037;-82
2023/12/08 12:17:10;;;;;;;3.25;1.58;;;;;;;;;;5070199;28;20036;-82
2023/12/08 12:19:37;;;;;;;2.25;0.88;;;;;;;;;;5070395;28;20074;-82
2023/12/08 12:22:04;;;;;;;1.38;0.90;;;;;;;;;;5051436;28;20063;-82
2023/12/08 12:24:30;;;;;;;6.25;1.08;;;;;;;;;;5064846;28;20056;-82
2023/12/08 12:26:56;;;;;;;2.97;1.42;;;;;;;;;;5068979;28;20123;-82
2023/12/08 12:29:23;;;;;;;4.47;1.63;;;;;;;;;;5056407;28;20072;-82
2023/12/08 12:31:50;;;;;;;;;;;;;;;;;;5068604;28;20489;-82
2023/12/08 12:34:16;;;;;;;19.02;2.17;;;;;;;;;;5059421;28;20377;-82
2023/12/08 12:36:42;;;;;;;8.07;3.92;;;;;;;;;;5061203;28;20070;-82
2023/12/08 12:39:09;;;;;;;8.45;4.63;;;;;;;;;;5068322;28;20577;-82
2023/12/08 12:41:35;;;;;;;6.55;2.83;;;;;;;;;;5057874;28;20793;-82
2023/12/08 12:44:01;;;;;;;5.82;2.67;;;;;;;;;;5066557;28;20118;-82
2023/12/08 12:46:28;;;;;;;3.13;2.13;;;;;;;;;;5064071;28;20485;-82
2023/12/08 12:48:54;;;;;;;3.20;1.67;;;;;;;;;;5067988;28;20044;-82
2023/12/08 12:51:32;;;;;;;5.20;2.38;;;;;;;;;;5060592;28;20045;-82
2023/12/08 12:53:58;;;;;;;5.63;2.50;;;;;;;;;;5068900;28;20052;-82
2023/12/08 12:56:25;;;;;;;5.78;1.30;;;;;;;;;;5055736;28;20048;-82
2023/12/08 12:59:03;;;;;;;3.28;1.77;;;;;;;;;;5067771;28;20055;-82
2023/12/08 13:01:29;;;;;;;4.43;1.02;;;;;;;;;;5055979;28;20044;-82
2023/12/08 13:03:55;;;;;;;2.90;0.93;;;;;;;;;;5055526;28;20052;-82
2023/12/08 13:06:28;;;;;;;1.92;1.23;;;;;;;;;;5055369;28;20043;-82
2023/12/08 13:08:55;;;;;;;3.33;2.10;;;;;;;;;;5048451;28;20052;-82
2023/12/08 13:11:21;;;;;;;6.03;1.50;;;;;;;;;;5072700;28;20032;-82
2023/12/08 13:13:47;;;;;;;5.65;3.97;;;;;;;;;;5041802;28;20140;-82
2023/12/08 13:16:13;;;;;;;3.45;2.53;;;;;;;;;;5043896;28;20143;-82
2023/12/08 13:18:49;;;;;;;3.20;2.20;;;;;;;;;;5064091;28;20139;-82
2023/12/08 13:21:15;;;;;;;4.95;2.08;;;;;;;;;;5068509;28;20041;-82
2023/12/08 13:23:47;;;;;;;5.40;2.70;;;;;;;;;;5064930;28;20102;-82
2023/12/08 13:26:13;;;;;;;2.80;2.03;;;;;;;;;;5059508;28;20152;-82
2023/12/08 13:28:40;;;;;;;22.55;2.45;;;;;;;;;;5061018;28;20044;-82
2023/12/08 13:31:06;;;;;;;5.00;1.95;;;;;;;;;;5073302;28;20051;-82
2023/12/08 13:33:32;;;;;;;4.15;2.80;;;;;;;;;;5068945;28;20044;-82
2023/12/08 13:35:58;;;;;;;3.05;1.02;;;;;;;;;;5051618;28;20044;-82
2023/12/08 13:38:24;;;;;;;4.60;1.63;;;;;;;;;;5062355;28;20067;-83
2023/12/08 13:40:50;;;;;;;4.00;1.98;;;;;;;;;;5072727;28;20067;-81
2023/12/08 13:43:16;;;;;;;5.32;1.50;;;;;;;;;;5064576;28;20037;-82
2023/12/08 13:45:42;;;;;;;3.85;1.92;;;;;;;;;;5066510;28;20044;-82
2023/12/08 13:48:08;;;;;;;3.50;2.45;;;;;;;;;;5069528;28;20098;-82
2023/12/08 13:50:35;;;;;;;6.80;2.45;;;;;;;;;;5070753;28;20089;-82
2023/12/08 13:53:01;;;;;;;4.00;1.52;;;;;;;;;;5055833;28;20029;-83
2023/12/08 13:55:27;;;;;;;3.13;2.05;;;;;;;;;;5070731;28;20048;-82
2023/12/08 13:57:53;;;;;;;4.10;1.83;;;;;;;;;;5072340;28;20040;-82
2023/12/08 14:00:19;;;;;;;8.40;3.55;;;;;;;;;;5071599;28;20132;-82
2023/12/08 14:02:49;;;;;;;8.02;3.50;;;;;;;;;;5065783;28;20371;-82
2023/12/08 14:05:16;;;;;;;5.07;2.63;;;;;;;;;;5051963;28;20055;-82
2023/12/08 14:07:42;;;;;;;5.30;3.13;;;;;;;;;;5069875;28;20033;-82
2023/12/08 14:10:09;;;;;;;6.85;2.88;;;;;;;;;;5066954;28;20528;-82
2023/12/08 14:12:35;;;;;;;3.35;1.77;;;;;;;;;;5069687;28;20047;-83
2023/12/08 14:15:01;;;;;;;16.27;1.92;;;;;;;;;;5059731;28;20045;-82
2023/12/08 14:17:28;;;;;;;4.63;2.13;;;;;;;;;;5066494;28;20041;-83
2023/12/08 14:19:54;;;;;;;7.25;3.17;;;;;;;;;;5061705;28;20048;-82
2023/12/08 14:22:20;;;;;;;11.35;5.13;;;;;;;;;;5057224;28;20041;-83
2023/12/08 14:24:47;;;;;;;7.10;4.20;;;;;;;;;;5068196;28;20094;-83
2023/12/08 14:27:13;;;;;;;8.80;3.72;;;;;;;;;;5071106;28;20064;-83
2023/12/08 14:29:39;;;;;;;11.70;5.40;;;;;;;;;;5061727;28;20048;-83
2023/12/08 14:32:05;;;;;;;4.97;3.10;;;;;;;;;;5072166;28;20090;-83
2023/12/08 14:34:31;;;;;;;4.45;2.63;;;;;;;;;;5048116;28;20068;-83
2023/12/08 14:36:57;;;;;;;6.20;2.00;;;;;;;;;;5071691;28;20060;-83
2023/12/08 14:39:23;;;;;;;3.78;1.38;;;;;;;;;;5046767;28;20045;-83
2023/12/08 14:41:48;;;;;;;5.47;1.80;;;;;;;;;;5066867;28;20037;-83
2023/12/08 14:44:14;;;;;;;1.85;1.10;;;;;;;;;;5062685;28;20079;-82
2023/12/08 14:46:42;;;;;;;7.93;1.77;;;;;;;;;;5072359;28;20036;-82
2023/12/08 14:49:08;;;;;;;3.58;1.30;;;;;;;;;;5064649;28;20033;-82
2023/12/08 14:51:35;;;;;;;4.38;1.95;;;;;;;;;;5061829;28;20086;-82
2023/12/08 14:54:01;;;;;;;10.45;4.93;;;;;;;;;;5066305;28;20876;-83
2023/12/08 14:56:27;;;;;;;13.13;4.28;;;;;;;;;;5050279;28;20107;-82
2023/12/08 14:58:53;;;;;;;9.00;4.15;;;;;;;;;;5043307;28;20505;-82
2023/12/08 15:01:20;;;;;;;4.40;2.10;;;;;;;;;;5050541;28;20044;-82
2023/12/08 15:03:47;;;;;;;7.00;3.03;;;;;;;;;;5066785;28;20115;-82
2023/12/08 15:06:13;;;;;;;12.70;4.72;;;;;;;;;;5070673;28;20367;-83
2023/12/08 15:08:39;;;;;;;8.85;4.32;;;;;;;;;;5052610;28;20998;-82
2023/12/08 15:11:05;;;;;;;7.47;3.70;;;;;;;;;;5052519;28;20044;-83
2023/12/08 15:13:31;;;;;;;4.32;2.53;;;;;;;;;;5066740;28;20044;-83
2023/12/08 15:15:57;;;;;;;4.18;1.38;;;;;;;;;;5057144;28;20045;-82
2023/12/08 15:18:23;;;;;;;5.82;2.40;;;;;;;;;;5058586;28;20037;-82
2023/12/08 15:20:52;;;;;;;3.03;2.08;;;;;;;;;;5048198;28;20367;-83
2023/12/08 15:23:20;;;;;;;3.63;1.35;;;;;;;;;;5053379;28;20056;-83
2023/12/08 15:25:46;;;;;;;3.60;2.20;;;;;;;;;;5067861;28;20219;-82
2023/12/08 15:28:12;;;;;;;3.22;1.40;;;;;;;;;;5064907;28;20099;-82
2023/12/08 15:30:38;;;;;;;6.05;3.20;;;;;;;;;;5067004;28;20401;-82
2023/12/08 15:33:04;;;;;;;6.75;2.53;;;;;;;;;;5064121;28;20096;-82
2023/12/08 15:35:30;;;;;;;7.20;2.80;;;;;;;;;;5047972;28;20461;-83
2023/12/08 15:37:56;;;;;;;8.10;4.80;;;;;;;;;;5043315;28;20086;-83
2023/12/08 15:40:22;;;;;;;7.28;4.45;;;;;;;;;;5061910;28;20097;-82
2023/12/08 15:42:48;;;;;;;11.07;5.07;;;;;;;;;;5068720;28;20476;-82
2023/12/08 15:45:14;;;;;;;4.70;2.22;;;;;;;;;;5069326;28;20244;-82
2023/12/08 15:47:40;;;;;;;6.68;3.22;;;;;;;;;;5068366;28;20048;-82
2023/12/08 15:50:06;;;;;;;6.72;3.22;;;;;;;;;;5066096;28;20040;-82
2023/12/08 15:52:32;;;;;;;5.03;2.65;;;;;;;;;;5061685;28;20041;-82
2023/12/08 15:54:58;;;;;;;9.60;2.60;;;;;;;;;;5056255;28;20064;-82
2023/12/08 15:57:24;;;;;;;3.22;1.83;;;;;;;;;;5062717;28;20048;-82
2023/12/08 15:59:50;;;;;;;5.20;2.35;;;;;;;;;;5051698;28;20049;-82
2023/12/08 16:02:16;;;;;;;5.93;2.47;;;;;;;;;;5065345;28;20117;-82